Rockdale, Texas
Current Conditions -  °F | °C
As of 10:35 PM on Saturday 22 Nov 2014 (Local Time) from KT35 Reporting Station
Thunderstorm Thunderstorm  
Wind Chill: 60°   Ceiling: 6000
Heat Index: 60°   Visibility: 7mi
Dew Point: 59°   Wind: 10mph
Humidity: 97%   Direction: 320°NW
Pressure: 29.79"   Gusts: NA
Location:  30.66°N, 97°W
Report Text: KT35 230435Z AUTO 32009KT 7SM +VCTSRA SCT008 BKN060 OVC100 16/15 A2979 RMK AO2 LTG DSNT ALQS P0006 T01550150
Loading
Personal Weather Stations






























Interactive Weather Map New forecast layout! Learn more

10-Day Weather Forecast

Advertisements
Track Severe Weather on mobile